CYVP

Kuujjuaq Airport

Kuujjuaq, Quebec, Canada
METAR CYVP 151200Z 34008KT 290V360 15SM FEW010 SCT035 BKN072 10/07 A2985 RMK SF2SC1AC2 SLP111
Observed Flight Rules
Aug-15 @ 12:00 UTC (42 minutes ago) Visual Flight Rules
Wind Visibility Clouds
340° at 8 knots 15 miles
  • Few at 1,000' AGL
  • Scattered at 3,500' AGL
  • Broken at 7,200' AGL
Temperatures Readings
Current 10°C / 50°F
Dewpoint 7°C / 45°F
Humidity 82%
Altimeter 29.85" Hg
Pressure 1011.1 hPa
Elevation 60
METAR CYVP 151200Z 34008KT 290V360 15SM FEW010 SCT035 BKN072 10/07 A2985 RMK SF2SC1AC2 SLP111
Observed Flight Rules
Aug-15 @ 12:00 UTC
(42 minutes ago)
VFR
Wind Visibility
340° at 8 knots 15 miles
Clouds
  • Few at 1,000' AGL
  • Scattered at 3,500' AGL
  • Broken at 7,200' AGL
Temperature Dewpoint
10°C / 50°F 7°C / 45°F
Humidity Altimeter Pressure
82% 29.85" Hg 1011.1 hPa